createdAt,value
2023-04-26T00:01:05.478Z,98100.97
2023-04-26T00:06:10.125Z,98109.84
2023-04-26T00:11:11.937Z,98109.69
2023-04-26T00:16:15.004Z,98105.66
2023-04-26T00:21:16.930Z,98106.09
2023-04-26T00:26:18.739Z,98110.47
2023-04-26T00:31:20.569Z,98112.25
2023-04-26T00:36:22.547Z,98114.16
2023-04-26T00:41:24.571Z,98118.69
2023-04-26T00:46:28.925Z,98117.72
2023-04-26T00:51:34.034Z,98125.63
2023-04-26T00:56:37.332Z,98127.00
2023-04-26T01:01:40.827Z,98128.94
2023-04-26T01:06:42.834Z,98126.78
2023-04-26T01:11:45.117Z,98130.66
2023-04-26T01:16:47.579Z,98132.06
2023-04-26T01:21:49.707Z,98132.66
2023-04-26T01:26:51.652Z,98140.03
2023-04-26T01:31:55.473Z,98140.34
2023-04-26T01:36:57.316Z,98144.19
2023-04-26T01:41:59.185Z,98140.72
2023-04-26T01:47:01.116Z,98142.78
2023-04-26T01:52:03.552Z,98144.03
2023-04-26T01:57:05.388Z,98143.66
2023-04-26T02:02:07.268Z,98141.38
2023-04-26T02:07:13.170Z,98157.84
2023-04-26T02:12:20.773Z,98150.09
2023-04-26T02:17:22.899Z,98155.53
2023-04-26T02:22:27.950Z,98150.38
2023-04-26T02:27:29.796Z,98150.22
2023-04-26T02:32:31.647Z,98150.09
2023-04-26T02:37:34.282Z,98150.22
2023-04-26T02:42:36.583Z,98143.28
2023-04-26T02:47:38.936Z,98144.09
2023-04-26T02:52:41.376Z,98147.78
2023-04-26T02:57:43.229Z,98151.50
2023-04-26T03:02:45.998Z,98154.50
2023-04-26T03:07:47.979Z,98152.88
2023-04-26T03:12:50.006Z,98155.31
2023-04-26T03:17:52.424Z,98158.03
2023-04-26T03:22:54.658Z,98155.75
2023-04-26T03:27:57.082Z,98158.63
2023-04-26T03:32:59.038Z,98170.88
2023-04-26T03:38:01.318Z,98163.56
2023-04-26T03:43:03.502Z,98168.19
2023-04-26T03:48:05.675Z,98170.94
2023-04-26T03:53:07.898Z,98172.84
2023-04-26T03:58:09.744Z,98183.44
2023-04-26T04:03:12.688Z,98188.09
2023-04-26T04:08:16.165Z,98193.53
2023-04-26T04:13:18.227Z,98177.38
2023-04-26T04:18:20.186Z,98192.47
2023-04-26T04:23:22.234Z,98190.19
2023-04-26T04:28:24.045Z,98199.56
2023-04-26T04:33:28.608Z,98198.59
2023-04-26T04:38:31.955Z,98201.84
2023-04-26T04:43:34.003Z,98201.56
2023-04-26T04:48:38.783Z,98208.34
2023-04-26T04:53:40.976Z,98212.94
2023-04-26T04:58:42.795Z,98214.66
2023-04-26T05:03:45.347Z,98218.72
2023-04-26T05:08:47.631Z,98215.19
2023-04-26T05:13:52.257Z,98226.63
2023-04-26T05:18:55.259Z,98232.75
2023-04-26T05:23:57.150Z,98232.22
2023-04-26T05:28:59.203Z,98235.06
2023-04-26T05:34:10.888Z,98235.31
2023-04-26T05:39:14.508Z,98248.63
2023-04-26T05:44:16.800Z,98251.97
2023-04-26T05:49:19.818Z,98258.31
2023-04-26T05:54:22.304Z,98259.38
2023-04-26T05:59:24.143Z,98264.19
2023-04-26T06:04:26.160Z,98252.09
2023-04-26T06:09:45.070Z,98263.38
2023-04-26T06:14:47.005Z,98258.59
2023-04-26T06:19:53.799Z,98264.38
2023-04-26T06:24:55.763Z,98267.25
2023-04-26T06:29:57.754Z,98264.94
2023-04-26T06:35:01.372Z,98267.19
2023-04-26T06:40:04.004Z,98271.91
2023-04-26T06:45:07.340Z,98270.28
2023-04-26T06:50:11.119Z,98277.09
2023-04-26T06:55:13.131Z,98286.84
2023-04-26T07:00:15.298Z,98288.91
2023-04-26T07:05:17.441Z,98279.84
2023-04-26T07:10:21.258Z,98280.06
2023-04-26T07:15:23.049Z,98286.34
2023-04-26T07:20:24.885Z,98281.63
2023-04-26T07:25:27.079Z,98292.03
2023-04-26T07:30:29.074Z,98296.78
2023-04-26T07:35:31.038Z,98294.09
2023-04-26T07:40:33.154Z,98280.16
2023-04-26T07:45:35.179Z,98278.47
2023-04-26T07:50:37.318Z,98297.91
2023-04-26T07:55:39.186Z,98284.09
2023-04-26T08:00:41.827Z,98291.41
2023-04-26T08:05:44.263Z,98288.34
2023-04-26T08:10:46.353Z,98291.25
2023-04-26T08:15:48.558Z,98298.81
2023-04-26T08:20:50.443Z,98292.13
2023-04-26T08:25:52.588Z,98304.91
2023-04-26T08:30:54.578Z,98301.28
2023-04-26T08:35:56.876Z,98300.97
2023-04-26T08:41:03.562Z,98305.38
2023-04-26T08:46:12.884Z,98297.66
2023-04-26T08:51:16.396Z,98303.34
2023-04-26T08:56:18.769Z,98299.94
2023-04-26T09:01:22.303Z,98299.84
2023-04-26T09:06:25.097Z,98302.94
2023-04-26T09:11:26.882Z,98300.75
2023-04-26T09:16:38.260Z,98309.16
2023-04-26T09:21:47.396Z,98308.00
2023-04-26T09:27:03.283Z,98310.06
2023-04-26T09:32:05.475Z,98304.31
2023-04-26T09:37:14.007Z,98297.19
2023-04-26T09:42:18.258Z,98313.47
2023-04-26T09:47:22.233Z,98315.34
2023-04-26T09:52:24.156Z,98316.66
2023-04-26T09:57:26.306Z,98303.63
2023-04-26T10:02:30.128Z,98308.66
2023-04-26T10:07:32.322Z,98320.97
2023-04-26T10:12:34.388Z,98308.63
2023-04-26T10:17:36.239Z,98300.63
2023-04-26T10:22:46.345Z,98301.28
2023-04-26T10:27:49.462Z,98300.63
2023-04-26T10:32:57.522Z,98296.88
2023-04-26T10:37:59.543Z,98302.50
2023-04-26T10:43:16.373Z,98299.41
2023-04-26T10:48:28.557Z,98300.06
2023-04-26T10:53:45.620Z,98297.19
2023-04-26T10:58:47.435Z,98292.50
2023-04-26T11:03:58.912Z,98293.66
2023-04-26T11:09:01.009Z,98289.44
2023-04-26T11:14:03.519Z,98292.03
2023-04-26T11:19:09.894Z,98301.41
2023-04-26T11:24:15.921Z,98303.38
2023-04-26T11:29:21.498Z,98307.56
2023-04-26T11:34:33.580Z,98297.53
2023-04-26T11:39:38.615Z,98301.25
2023-04-26T11:44:41.284Z,98299.78
2023-04-26T11:49:43.442Z,98307.59
2023-04-26T11:54:45.231Z,98302.88
2023-04-26T11:59:47.075Z,98307.09
2023-04-26T12:04:59.828Z,98305.16
2023-04-26T12:10:17.254Z,98312.13
2023-04-26T12:15:22.565Z,98309.22
2023-04-26T12:20:35.860Z,98317.31
2023-04-26T12:25:39.613Z,98311.81
2023-04-26T12:30:41.462Z,98318.13
2023-04-26T12:35:43.258Z,98310.34
2023-04-26T12:40:45.488Z,98318.63
2023-04-26T12:45:49.058Z,98312.13
2023-04-26T12:50:51.477Z,98309.69
2023-04-26T12:55:53.478Z,98313.09
2023-04-26T13:00:55.578Z,98323.50
2023-04-26T13:05:57.348Z,98311.16
2023-04-26T13:10:59.391Z,98320.09
2023-04-26T13:16:01.482Z,98318.44
2023-04-26T13:21:03.630Z,98306.78
2023-04-26T13:26:05.642Z,98315.84
2023-04-26T13:31:07.866Z,98316.50
2023-04-26T13:36:09.681Z,98310.03
2023-04-26T13:41:11.856Z,98314.09
2023-04-26T13:46:13.716Z,98328.03
2023-04-26T13:51:15.532Z,98316.34
2023-04-26T13:56:18.223Z,98324.63
2023-04-26T14:01:20.104Z,98318.63
2023-04-26T14:06:22.418Z,98323.16
2023-04-26T14:11:24.521Z,98320.25
2023-04-26T14:16:26.924Z,98319.91
2023-04-26T14:21:28.936Z,98332.56
2023-04-26T14:26:31.044Z,98333.22
2023-04-26T14:31:33.122Z,98331.28
2023-04-26T14:36:35.068Z,98333.56
2023-04-26T14:41:37.522Z,98325.75
2023-04-26T14:46:42.423Z,98325.44
2023-04-26T14:51:44.293Z,98337.59
2023-04-26T14:56:46.394Z,98329.66
2023-04-26T15:01:49.005Z,98331.28
2023-04-26T15:06:51.255Z,98331.59
2023-04-26T15:11:53.412Z,98337.78
2023-04-26T15:16:55.282Z,98334.19
2023-04-26T15:21:57.083Z,98340.84
2023-04-26T15:26:58.861Z,98333.88
2023-04-26T15:32:01.078Z,98342.13
2023-04-26T15:37:02.931Z,98340.19
2023-04-26T15:42:05.817Z,98342.63
2023-04-26T15:47:07.961Z,98340.34
2023-04-26T15:52:09.788Z,98344.91
2023-04-26T15:57:11.501Z,98346.19
2023-04-26T16:02:13.308Z,98339.06
2023-04-26T16:07:15.798Z,98345.72
2023-04-26T16:12:17.669Z,98340.66
2023-04-26T16:17:19.467Z,98345.53
2023-04-26T16:22:21.422Z,98338.38
2023-04-26T16:27:23.264Z,98344.72
2023-04-26T16:32:26.577Z,98340.31
2023-04-26T16:37:28.505Z,98345.19
2023-04-26T16:42:31.081Z,98339.69
2023-04-26T16:47:34.252Z,98339.19
2023-04-26T16:52:36.292Z,98346.81
2023-04-26T16:57:38.239Z,98342.94
2023-04-26T17:02:41.084Z,98350.88
2023-04-26T17:07:43.004Z,98359.31
2023-04-26T17:12:44.748Z,98362.88
2023-04-26T17:17:46.611Z,98356.38
2023-04-26T17:22:48.763Z,98368.84
2023-04-26T17:27:51.665Z,98368.53
2023-04-26T17:32:53.593Z,98379.06
2023-04-26T17:37:55.547Z,98379.22
2023-04-26T17:42:57.591Z,98377.78
2023-04-26T17:47:59.426Z,98380.19
2023-04-26T17:53:02.559Z,98383.75
2023-04-26T17:58:05.498Z,98385.81
2023-04-26T18:03:07.952Z,98387.41
2023-04-26T18:08:09.931Z,98384.78
2023-04-26T18:13:12.035Z,98388.50
2023-04-26T18:18:14.171Z,98401.59
2023-04-26T18:23:16.518Z,98405.31
2023-04-26T18:28:18.383Z,98405.63
2023-04-26T18:33:20.488Z,98414.38
2023-04-26T18:38:22.537Z,98406.91
2023-04-26T18:43:24.371Z,98415.81
2023-04-26T18:48:26.270Z,98420.47
2023-04-26T18:53:28.122Z,98421.75
2023-04-26T18:58:29.961Z,98419.16
2023-04-26T19:03:32.420Z,98423.53
2023-04-26T19:08:34.512Z,98426.94
2023-04-26T19:13:36.412Z,98435.84
2023-04-26T19:18:40.509Z,98437.59
2023-04-26T19:23:43.548Z,98442.13
2023-04-26T19:28:46.967Z,98432.88
2023-04-26T19:33:48.835Z,98435.63
2023-04-26T19:38:50.848Z,98441.94
2023-04-26T19:43:52.912Z,98444.66
2023-04-26T19:48:54.787Z,98444.66
2023-04-26T19:53:56.590Z,98446.59
2023-04-26T19:58:58.443Z,98449.34
2023-04-26T20:04:00.443Z,98439.78
2023-04-26T20:09:02.707Z,98446.09
2023-04-26T20:14:04.561Z,98447.22
2023-04-26T20:19:06.587Z,98449.28
2023-04-26T20:24:08.900Z,98447.81
2023-04-26T20:29:10.926Z,98442.28
2023-04-26T20:34:12.838Z,98453.22
2023-04-26T20:39:14.686Z,98446.50
2023-04-26T20:44:16.601Z,98446.59
2023-04-26T20:49:18.514Z,98443.28
2023-04-26T20:54:20.957Z,98432.19
2023-04-26T20:59:25.020Z,98442.75
2023-04-26T21:04:27.379Z,98443.78
2023-04-26T21:09:29.721Z,98454.03
2023-04-26T21:14:31.788Z,98451.91
2023-04-26T21:19:33.695Z,98457.66
2023-04-26T21:24:36.805Z,98457.28
2023-04-26T21:29:38.633Z,98456.75
2023-04-26T21:34:40.490Z,98467.53
2023-04-26T21:39:42.273Z,98465.50
2023-04-26T21:44:44.293Z,98477.38
2023-04-26T21:49:46.262Z,98479.69
2023-04-26T21:54:48.034Z,98481.06
2023-04-26T21:59:50.620Z,98485.03
2023-04-26T22:04:54.751Z,98488.72
2023-04-26T22:09:56.483Z,98491.06
2023-04-26T22:14:58.452Z,98492.56
2023-04-26T22:20:00.297Z,98499.66
2023-04-26T22:25:02.315Z,98491.09
2023-04-26T22:30:20.311Z,98499.94
2023-04-26T22:35:27.639Z,98497.75
2023-04-26T22:40:29.545Z,98504.31
2023-04-26T22:45:31.436Z,98503.09
2023-04-26T22:50:33.391Z,98506.22
2023-04-26T22:55:35.252Z,98518.75
2023-04-26T23:00:37.198Z,98515.63
2023-04-26T23:05:39.041Z,98522.56
2023-04-26T23:10:40.851Z,98515.75
2023-04-26T23:15:42.654Z,98522.16
2023-04-26T23:20:44.550Z,98523.25
2023-04-26T23:25:46.911Z,98516.59
2023-04-26T23:30:49.941Z,98519.28
2023-04-26T23:35:55.241Z,98523.25
2023-04-26T23:40:57.465Z,98525.41
2023-04-26T23:45:59.485Z,98521.63
2023-04-26T23:51:01.736Z,98520.25
2023-04-26T23:56:03.940Z,98511.00
